CYHY

Hay River / Merlyn Carter Airport

Hay River, Northwest Territories, Canada
METAR CYHY 170200Z 18011KT 15SM FEW006 BKN170 BKN200 M08/M09 A2942 RMK SC1AC4CI2 SLP978
Observed Flight Rules
Dec-17 @ 02:00 UTC (22 minutes ago) Visual Flight Rules
Wind Visibility Clouds
180° at 11 knots 15 miles
  • Few at 600' AGL
  • Broken at 17,000' AGL
  • Broken at 20,000' AGL
Temperatures Readings
Current -8°C / 18°F
Dewpoint -9°C / 16°F
Humidity 93%
Altimeter 29.42" Hg
Pressure 997.8 hPa
Elevation 166
METAR CYHY 170200Z 18011KT 15SM FEW006 BKN170 BKN200 M08/M09 A2942 RMK SC1AC4CI2 SLP978
Observed Flight Rules
Dec-17 @ 02:00 UTC
(22 minutes ago)
VFR
Wind Visibility
180° at 11 knots 15 miles
Clouds
  • Few at 600' AGL
  • Broken at 17,000' AGL
  • Broken at 20,000' AGL
Temperature Dewpoint
-8°C / 18°F -9°C / 16°F
Humidity Altimeter Pressure
93% 29.42" Hg 997.8 hPa